sensor_id;sensor_type;location;lat;lon;timestamp;pressure;altitude;pressure_sealevel;temperature;humidity
22047;BME280;11187;49.412;20.956;2023-06-22T00:01:52;95304.06;;;18.01;100.00
22047;BME280;11187;49.412;20.956;2023-06-22T00:04:39;95303.28;;;17.99;100.00
22047;BME280;11187;49.412;20.956;2023-06-22T00:07:12;95308.47;;;17.99;100.00
22047;BME280;11187;49.412;20.956;2023-06-22T00:09:59;95311.13;;;17.98;100.00
22047;BME280;11187;49.412;20.956;2023-06-22T00:12:32;95308.59;;;17.96;100.00
22047;BME280;11187;49.412;20.956;2023-06-22T00:15:19;95310.50;;;17.92;100.00
22047;BME280;11187;49.412;20.956;2023-06-22T00:17:52;95307.06;;;17.92;100.00
22047;BME280;11187;49.412;20.956;2023-06-22T00:20:40;95311.47;;;17.90;100.00
22047;BME280;11187;49.412;20.956;2023-06-22T00:23:13;95309.78;;;17.89;100.00
22047;BME280;11187;49.412;20.956;2023-06-22T00:26:00;95316.78;;;17.87;100.00
22047;BME280;11187;49.412;20.956;2023-06-22T00:28:33;95328.88;;;17.86;100.00
22047;BME280;11187;49.412;20.956;2023-06-22T00:31:21;95328.94;;;17.85;100.00
22047;BME280;11187;49.412;20.956;2023-06-22T00:33:54;95323.91;;;17.82;100.00
22047;BME280;11187;49.412;20.956;2023-06-22T00:36:41;95323.09;;;17.80;100.00
22047;BME280;11187;49.412;20.956;2023-06-22T00:39:14;95314.53;;;17.78;100.00
22047;BME280;11187;49.412;20.956;2023-06-22T00:42:01;95319.72;;;17.78;100.00
22047;BME280;11187;49.412;20.956;2023-06-22T00:44:37;95306.91;;;17.74;100.00
22047;BME280;11187;49.412;20.956;2023-06-22T00:47:27;95313.00;;;17.73;100.00
22047;BME280;11187;49.412;20.956;2023-06-22T00:50:00;95309.56;;;17.73;100.00
22047;BME280;11187;49.412;20.956;2023-06-22T00:52:59;95313.06;;;17.72;100.00
22047;BME280;11187;49.412;20.956;2023-06-22T00:55:56;95299.41;;;17.68;100.00
22047;BME280;11187;49.412;20.956;2023-06-22T00:58:32;95298.72;;;17.65;100.00
22047;BME280;11187;49.412;20.956;2023-06-22T01:01:21;95309.13;;;17.63;100.00
22047;BME280;11187;49.412;20.956;2023-06-22T01:03:56;95307.53;;;17.61;100.00
22047;BME280;11187;49.412;20.956;2023-06-22T01:06:54;95304.28;;;17.56;100.00
22047;BME280;11187;49.412;20.956;2023-06-22T01:09:35;95315.59;;;17.53;100.00
22047;BME280;11187;49.412;20.956;2023-06-22T01:12:39;95314.06;;;17.49;100.00
22047;BME280;11187;49.412;20.956;2023-06-22T01:15:20;95307.34;;;17.45;100.00
22047;BME280;11187;49.412;20.956;2023-06-22T01:18:09;95309.19;;;17.41;100.00
22047;BME280;11187;49.412;20.956;2023-06-22T01:20:43;95308.38;;;17.41;100.00
22047;BME280;11187;49.412;20.956;2023-06-22T01:26:51;95299.97;;;17.36;100.00
22047;BME280;11187;49.412;20.956;2023-06-22T01:29:51;95300.94;;;17.33;100.00
22047;BME280;11187;49.412;20.956;2023-06-22T01:32:47;95307.00;;;17.32;100.00
22047;BME280;11187;49.412;20.956;2023-06-22T01:35:42;95307.91;;;17.31;100.00
22047;BME280;11187;49.412;20.956;2023-06-22T01:38:38;95302.00;;;17.27;100.00
22047;BME280;11187;49.412;20.956;2023-06-22T01:41:12;95313.34;;;17.25;100.00
22047;BME280;11187;49.412;20.956;2023-06-22T01:44:06;95312.50;;;17.24;100.00
22047;BME280;11187;49.412;20.956;2023-06-22T01:47:01;95324.59;;;17.24;100.00
22047;BME280;11187;49.412;20.956;2023-06-22T01:49:35;95328.13;;;17.21;100.00
22047;BME280;11187;49.412;20.956;2023-06-22T01:52:22;95331.63;;;17.20;100.00
22047;BME280;11187;49.412;20.956;2023-06-22T01:54:56;95330.03;;;17.18;100.00
22047;BME280;11187;49.412;20.956;2023-06-22T01:57:51;95326.66;;;17.16;100.00
22047;BME280;11187;49.412;20.956;2023-06-22T02:00:25;95330.91;;;17.17;100.00
22047;BME280;11187;49.412;20.956;2023-06-22T02:03:29;95335.25;;;17.16;100.00
22047;BME280;11187;49.412;20.956;2023-06-22T02:06:29;95334.47;;;17.14;100.00
22047;BME280;11187;49.412;20.956;2023-06-22T02:09:25;95330.22;;;17.13;100.00
22047;BME280;11187;49.412;20.956;2023-06-22T02:12:02;95332.84;;;17.11;100.00
22047;BME280;11187;49.412;20.956;2023-06-22T02:14:58;95338.94;;;17.10;100.00
22047;BME280;11187;49.412;20.956;2023-06-22T02:17:53;95334.75;;;17.08;100.00
22047;BME280;11187;49.412;20.956;2023-06-22T02:20:47;95335.63;;;17.07;100.00
22047;BME280;11187;49.412;20.956;2023-06-22T02:23:20;95341.72;;;17.06;100.00
22047;BME280;11187;49.412;20.956;2023-06-22T02:26:07;95340.84;;;17.05;100.00
22047;BME280;11187;49.412;20.956;2023-06-22T02:28:40;95344.34;;;17.04;100.00
22047;BME280;11187;49.412;20.956;2023-06-22T02:31:27;95342.72;;;17.02;100.00
22047;BME280;11187;49.412;20.956;2023-06-22T02:34:03;95346.22;;;17.01;100.00
22047;BME280;11187;49.412;20.956;2023-06-22T02:36:53;95345.38;;;17.00;100.00
22047;BME280;11187;49.412;20.956;2023-06-22T02:39:26;95348.88;;;16.99;100.00
22047;BME280;11187;49.412;20.956;2023-06-22T02:42:13;95351.47;;;16.99;100.00
22047;BME280;11187;49.412;20.956;2023-06-22T02:44:46;95342.88;;;16.99;100.00
22047;BME280;11187;49.412;20.956;2023-06-22T02:47:33;95350.63;;;16.99;100.00
22047;BME280;11187;49.412;20.956;2023-06-22T02:50:06;95346.34;;;16.98;100.00
22047;BME280;11187;49.412;20.956;2023-06-22T02:53:00;95336.00;;;16.98;100.00
22047;BME280;11187;49.412;20.956;2023-06-22T02:55:55;95336.03;;;16.96;100.00
22047;BME280;11187;49.412;20.956;2023-06-22T02:58:28;95340.34;;;16.97;100.00
22047;BME280;11187;49.412;20.956;2023-06-22T03:01:18;95336.97;;;16.95;100.00
22047;BME280;11187;49.412;20.956;2023-06-22T03:03:57;95339.53;;;16.95;100.00
22047;BME280;11187;49.412;20.956;2023-06-22T03:06:51;95346.47;;;16.95;100.00
22047;BME280;11187;49.412;20.956;2023-06-22T03:09:24;95344.72;;;16.95;100.00
22047;BME280;11187;49.412;20.956;2023-06-22T03:12:11;95352.47;;;16.95;100.00
22047;BME280;11187;49.412;20.956;2023-06-22T03:14:44;95348.28;;;16.93;100.00
22047;BME280;11187;49.412;20.956;2023-06-22T03:17:39;95346.56;;;16.91;100.00
22047;BME280;11187;49.412;20.956;2023-06-22T03:20:12;95352.59;;;16.92;100.00
22047;BME280;11187;49.412;20.956;2023-06-22T03:23:06;95359.50;;;16.91;100.00
22047;BME280;11187;49.412;20.956;2023-06-22T03:25:40;95369.94;;;16.90;100.00
22047;BME280;11187;49.412;20.956;2023-06-22T03:28:27;95367.25;;;16.91;100.00
22047;BME280;11187;49.412;20.956;2023-06-22T03:31:00;95365.53;;;16.92;100.00
22047;BME280;11187;49.412;20.956;2023-06-22T03:33:54;95374.97;;;16.93;100.00
22047;BME280;11187;49.412;20.956;2023-06-22T03:36:48;95372.38;;;16.93;100.00
22047;BME280;11187;49.412;20.956;2023-06-22T03:39:21;95380.94;;;16.95;100.00
22047;BME280;11187;49.412;20.956;2023-06-22T03:42:08;95388.63;;;16.97;100.00
22047;BME280;11187;49.412;20.956;2023-06-22T03:44:41;95391.16;;;16.98;100.00
22047;BME280;11187;49.412;20.956;2023-06-22T03:47:28;95389.47;;;16.97;100.00
22047;BME280;11187;49.412;20.956;2023-06-22T03:50:01;95394.59;;;16.99;100.00
22047;BME280;11187;49.412;20.956;2023-06-22T03:52:48;95397.09;;;17.00;100.00
22047;BME280;11187;49.412;20.956;2023-06-22T03:55:21;95404.84;;;17.00;100.00
22047;BME280;11187;49.412;20.956;2023-06-22T03:58:08;95405.81;;;16.98;100.00
22047;BME280;11187;49.412;20.956;2023-06-22T04:00:49;95403.25;;;16.98;100.00
22047;BME280;11187;49.412;20.956;2023-06-22T04:03:44;95417.00;;;16.98;100.00
22047;BME280;11187;49.412;20.956;2023-06-22T04:06:17;95410.13;;;16.99;100.00
22047;BME280;11187;49.412;20.956;2023-06-22T04:09:11;95411.84;;;16.98;100.00
22047;BME280;11187;49.412;20.956;2023-06-22T04:11:44;95409.97;;;17.02;100.00
22047;BME280;11187;49.412;20.956;2023-06-22T04:14:38;95420.19;;;17.05;100.00
22047;BME280;11187;49.412;20.956;2023-06-22T04:17:11;95417.50;;;17.08;100.00
22047;BME280;11187;49.412;20.956;2023-06-22T04:19:59;95406.31;;;17.07;100.00
22047;BME280;11187;49.412;20.956;2023-06-22T04:22:32;95417.38;;;17.11;100.00
22047;BME280;11187;49.412;20.956;2023-06-22T04:25:19;95421.63;;;17.12;100.00
22047;BME280;11187;49.412;20.956;2023-06-22T04:27:52;95430.19;;;17.14;100.00
22047;BME280;11187;49.412;20.956;2023-06-22T04:30:43;95430.97;;;17.16;100.00
22047;BME280;11187;49.412;20.956;2023-06-22T04:33:19;95432.59;;;17.19;100.00
22047;BME280;11187;49.412;20.956;2023-06-22T04:36:13;95430.00;;;17.19;100.00
22047;BME280;11187;49.412;20.956;2023-06-22T04:39:12;95429.97;;;17.20;100.00
22047;BME280;11187;49.412;20.956;2023-06-22T04:41:45;95427.31;;;17.22;100.00
22047;BME280;11187;49.412;20.956;2023-06-22T04:44:39;95422.06;;;17.23;100.00
22047;BME280;11187;49.412;20.956;2023-06-22T04:47:33;95433.19;;;17.25;100.00
22047;BME280;11187;49.412;20.956;2023-06-22T04:50:06;95443.44;;;17.28;100.00
22047;BME280;11187;49.412;20.956;2023-06-22T04:52:53;95444.34;;;17.27;100.00
22047;BME280;11187;49.412;20.956;2023-06-22T04:55:26;95447.72;;;17.29;100.00
22047;BME280;11187;49.412;20.956;2023-06-22T04:58:20;95452.84;;;17.31;100.00
22047;BME280;11187;49.412;20.956;2023-06-22T05:01:15;95455.34;;;17.32;100.00
22047;BME280;11187;49.412;20.956;2023-06-22T05:03:49;95451.88;;;17.33;100.00
22047;BME280;11187;49.412;20.956;2023-06-22T05:06:37;95446.56;;;17.37;100.00
22047;BME280;11187;49.412;20.956;2023-06-22T05:09:10;95442.16;;;17.39;100.00
22047;BME280;11187;49.412;20.956;2023-06-22T05:12:04;95452.47;;;17.40;100.00
22047;BME280;11187;49.412;20.956;2023-06-22T05:14:58;95453.31;;;17.41;100.00
22047;BME280;11187;49.412;20.956;2023-06-22T05:17:52;95444.63;;;17.42;100.00
22047;BME280;11187;49.412;20.956;2023-06-22T05:20:25;95448.06;;;17.42;100.00
22047;BME280;11187;49.412;20.956;2023-06-22T05:23:16;95441.09;;;17.44;100.00
22047;BME280;11187;49.412;20.956;2023-06-22T05:25:49;95440.97;;;17.47;100.00
22047;BME280;11187;49.412;20.956;2023-06-22T05:28:44;95435.66;;;17.50;100.00
22047;BME280;11187;49.412;20.956;2023-06-22T05:31:38;95441.56;;;17.54;100.00
22047;BME280;11187;49.412;20.956;2023-06-22T05:34:13;95442.34;;;17.56;100.00
22047;BME280;11187;49.412;20.956;2023-06-22T05:37:07;95447.44;;;17.58;100.00
22047;BME280;11187;49.412;20.956;2023-06-22T05:40:01;95449.97;;;17.59;100.00
22047;BME280;11187;49.412;20.956;2023-06-22T05:42:56;95448.16;;;17.61;100.00
22047;BME280;11187;49.412;20.956;2023-06-22T05:45:50;95450.63;;;17.64;100.00
22047;BME280;11187;49.412;20.956;2023-06-22T05:48:44;95454.00;;;17.66;100.00
22047;BME280;11187;49.412;20.956;2023-06-22T05:51:38;95451.34;;;17.68;100.00
22047;BME280;11187;49.412;20.956;2023-06-22T05:54:12;95452.19;;;17.68;100.00
22047;BME280;11187;49.412;20.956;2023-06-22T05:57:06;95455.50;;;17.72;100.00
22047;BME280;11187;49.412;20.956;2023-06-22T06:00:00;95460.53;;;17.75;100.00
22047;BME280;11187;49.412;20.956;2023-06-22T06:02:33;95456.88;;;17.81;100.00
22047;BME280;11187;49.412;20.956;2023-06-22T06:05:24;95442.00;;;17.86;100.00
22047;BME280;11187;49.412;20.956;2023-06-22T06:08:02;95428.81;;;17.92;100.00
22047;BME280;11187;49.412;20.956;2023-06-22T06:10:57;95431.13;;;17.98;100.00
22047;BME280;11187;49.412;20.956;2023-06-22T06:13:30;95438.44;;;18.09;100.00
22047;BME280;11187;49.412;20.956;2023-06-22T06:16:24;95439.66;;;18.21;100.00
22047;BME280;11187;49.412;20.956;2023-06-22T06:19:18;95446.91;;;18.33;100.00
22047;BME280;11187;49.412;20.956;2023-06-22T06:21:51;95447.22;;;18.46;100.00
22047;BME280;11187;49.412;20.956;2023-06-22T06:24:39;95451.09;;;18.56;100.00
22047;BME280;11187;49.412;20.956;2023-06-22T06:27:12;95449.69;;;18.68;100.00
22047;BME280;11187;49.412;20.956;2023-06-22T06:29:59;95437.25;;;18.76;100.00
22047;BME280;11187;49.412;20.956;2023-06-22T06:32:32;95439.44;;;18.85;100.00
22047;BME280;11187;49.412;20.956;2023-06-22T06:35:19;95442.44;;;18.95;100.00
22047;BME280;11187;49.412;20.956;2023-06-22T06:37:53;95447.00;;;19.09;100.00
22047;BME280;11187;49.412;20.956;2023-06-22T06:40:41;95442.91;;;19.22;100.00
22047;BME280;11187;49.412;20.956;2023-06-22T06:43:16;95437.00;;;19.37;100.00
22047;BME280;11187;49.412;20.956;2023-06-22T06:46:04;95440.47;;;19.55;100.00
22047;BME280;11187;49.412;20.956;2023-06-22T06:48:37;95439.72;;;19.71;100.00
22047;BME280;11187;49.412;20.956;2023-06-22T06:51:31;95435.38;;;19.89;100.00
22047;BME280;11187;49.412;20.956;2023-06-22T06:54:04;95435.38;;;20.06;100.00
22047;BME280;11187;49.412;20.956;2023-06-22T06:56:58;95426.81;;;20.21;100.00
22047;BME280;11187;49.412;20.956;2023-06-22T06:59:31;95430.38;;;20.36;100.00
22047;BME280;11187;49.412;20.956;2023-06-22T07:02:18;95424.44;;;20.50;100.00
22047;BME280;11187;49.412;20.956;2023-06-22T07:04:51;95422.66;;;20.68;100.00
22047;BME280;11187;49.412;20.956;2023-06-22T07:07:47;95430.47;;;20.84;100.00
22047;BME280;11187;49.412;20.956;2023-06-22T07:10:41;95427.81;;;21.01;100.00
22047;BME280;11187;49.412;20.956;2023-06-22T07:13:14;95428.72;;;21.16;100.00
22047;BME280;11187;49.412;20.956;2023-06-22T07:16:04;95426.28;;;21.29;100.00
22047;BME280;11187;49.412;20.956;2023-06-22T07:18:39;95426.50;;;21.42;100.00
22047;BME280;11187;49.412;20.956;2023-06-22T07:21:26;95429.16;;;21.56;100.00
22047;BME280;11187;49.412;20.956;2023-06-22T07:23:59;95418.75;;;21.71;100.00
22047;BME280;11187;49.412;20.956;2023-06-22T07:26:49;95419.09;;;21.80;100.00
22047;BME280;11187;49.412;20.956;2023-06-22T07:29:23;95429.63;;;21.93;100.00
22047;BME280;11187;49.412;20.956;2023-06-22T07:32:14;95425.56;;;22.03;100.00
22047;BME280;11187;49.412;20.956;2023-06-22T07:34:47;95423.91;;;22.17;100.00
22047;BME280;11187;49.412;20.956;2023-06-22T07:37:34;95419.94;;;22.25;100.00
22047;BME280;11187;49.412;20.956;2023-06-22T07:40:11;95425.91;;;22.27;100.00
22047;BME280;11187;49.412;20.956;2023-06-22T07:43:05;95419.34;;;22.20;100.00
22047;BME280;11187;49.412;20.956;2023-06-22T07:45:38;95425.50;;;22.19;100.00
22047;BME280;11187;49.412;20.956;2023-06-22T07:48:27;95427.16;;;22.20;100.00
22047;BME280;11187;49.412;20.956;2023-06-22T07:51:00;95432.50;;;22.19;100.00
22047;BME280;11187;49.412;20.956;2023-06-22T07:53:47;95430.59;;;22.21;100.00
22047;BME280;11187;49.412;20.956;2023-06-22T07:56:20;95426.09;;;22.24;100.00
22047;BME280;11187;49.412;20.956;2023-06-22T07:59:08;95430.41;;;22.40;100.00
22047;BME280;11187;49.412;20.956;2023-06-22T08:01:42;95424.25;;;22.41;100.00
22047;BME280;11187;49.412;20.956;2023-06-22T08:04:29;95422.38;;;22.43;100.00
22047;BME280;11187;49.412;20.956;2023-06-22T08:07:05;95422.38;;;22.57;100.00
22047;BME280;11187;49.412;20.956;2023-06-22T08:10:02;95427.78;;;22.68;100.00
22047;BME280;11187;49.412;20.956;2023-06-22T08:12:56;95430.94;;;22.88;100.00
22047;BME280;11187;49.412;20.956;2023-06-22T08:15:50;95431.97;;;23.00;100.00
22047;BME280;11187;49.412;20.956;2023-06-22T08:18:23;95430.78;;;23.05;100.00
22047;BME280;11187;49.412;20.956;2023-06-22T08:21:10;95443.13;;;23.16;100.00
22047;BME280;11187;49.412;20.956;2023-06-22T08:23:44;95435.50;;;23.13;100.00
22047;BME280;11187;49.412;20.956;2023-06-22T08:26:31;95434.56;;;23.14;100.00
22047;BME280;11187;49.412;20.956;2023-06-22T08:29:08;95433.63;;;23.15;100.00
22047;BME280;11187;49.412;20.956;2023-06-22T08:31:55;95437.91;;;23.16;100.00
22047;BME280;11187;49.412;20.956;2023-06-22T08:34:28;95435.94;;;23.20;100.00
22047;BME280;11187;49.412;20.956;2023-06-22T08:37:18;95437.59;;;23.35;100.00
22047;BME280;11187;49.412;20.956;2023-06-22T08:39:51;95436.72;;;23.49;100.00
22047;BME280;11187;49.412;20.956;2023-06-22T08:42:46;95439.56;;;23.59;100.00
22047;BME280;11187;49.412;20.956;2023-06-22T08:45:40;95434.22;;;23.74;100.00
22047;BME280;11187;49.412;20.956;2023-06-22T08:48:34;95437.69;;;23.88;100.00
22047;BME280;11187;49.412;20.956;2023-06-22T08:51:28;95427.00;;;23.78;100.00
22047;BME280;11187;49.412;20.956;2023-06-22T08:54:22;95436.59;;;23.77;100.00
22047;BME280;11187;49.412;20.956;2023-06-22T08:56:55;95426.88;;;23.80;100.00
22047;BME280;11187;49.412;20.956;2023-06-22T08:59:42;95428.06;;;23.75;100.00
22047;BME280;11187;49.412;20.956;2023-06-22T09:02:17;95424.41;;;23.91;100.00
22047;BME280;11187;49.412;20.956;2023-06-22T09:05:12;95419.91;;;23.93;100.00
22047;BME280;11187;49.412;20.956;2023-06-22T09:08:07;95428.50;;;23.95;100.00
22047;BME280;11187;49.412;20.956;2023-06-22T09:11:01;95423.91;;;23.99;100.00
22047;BME280;11187;49.412;20.956;2023-06-22T09:13:58;95424.84;;;23.97;100.00
22047;BME280;11187;49.412;20.956;2023-06-22T09:16:52;95424.00;;;23.97;100.00
22047;BME280;11187;49.412;20.956;2023-06-22T09:19:48;95415.75;;;24.03;100.00
22047;BME280;11187;49.412;20.956;2023-06-22T09:22:21;95420.56;;;24.09;100.00
22047;BME280;11187;49.412;20.956;2023-06-22T09:25:09;95434.41;;;24.24;100.00
22047;BME280;11187;49.412;20.956;2023-06-22T09:27:42;95426.25;;;24.29;100.00
22047;BME280;11187;49.412;20.956;2023-06-22T09:30:36;95430.09;;;24.36;100.00
22047;BME280;11187;49.412;20.956;2023-06-22T09:33:30;95431.50;;;24.42;100.00
22047;BME280;11187;49.412;20.956;2023-06-22T09:36:05;95433.38;;;24.39;100.00
22047;BME280;11187;49.412;20.956;2023-06-22T09:38:59;95438.69;;;24.25;100.00
22047;BME280;11187;49.412;20.956;2023-06-22T09:41:34;95435.75;;;24.17;100.00
22047;BME280;11187;49.412;20.956;2023-06-22T09:44:21;95435.34;;;24.10;100.00
22047;BME280;11187;49.412;20.956;2023-06-22T09:46:54;95433.84;;;24.06;100.00
22047;BME280;11187;49.412;20.956;2023-06-22T09:49:44;95421.19;;;24.00;100.00
22047;BME280;11187;49.412;20.956;2023-06-22T09:52:17;95430.38;;;23.93;100.00
22047;BME280;11187;49.412;20.956;2023-06-22T09:55:13;95429.19;;;23.84;100.00
22047;BME280;11187;49.412;20.956;2023-06-22T09:57:48;95433.59;;;23.84;100.00
22047;BME280;11187;49.412;20.956;2023-06-22T10:00:42;95431.19;;;23.93;100.00
22047;BME280;11187;49.412;20.956;2023-06-22T10:03:15;95431.34;;;24.05;100.00
22047;BME280;11187;49.412;20.956;2023-06-22T10:06:06;95427.88;;;24.04;100.00
22047;BME280;11187;49.412;20.956;2023-06-22T10:08:40;95429.56;;;24.18;99.33
22047;BME280;11187;49.412;20.956;2023-06-22T10:11:28;95426.56;;;24.37;100.00
22047;BME280;11187;49.412;20.956;2023-06-22T10:14:03;95424.38;;;24.44;100.00
22047;BME280;11187;49.412;20.956;2023-06-22T10:16:52;95427.41;;;24.50;97.77
22047;BME280;11187;49.412;20.956;2023-06-22T10:19:25;95427.41;;;24.63;98.38
22047;BME280;11187;49.412;20.956;2023-06-22T10:22:12;95423.31;;;24.59;98.13
22047;BME280;11187;49.412;20.956;2023-06-22T10:24:45;95423.31;;;24.59;99.81
22047;BME280;11187;49.412;20.956;2023-06-22T10:27:32;95425.03;;;24.60;99.87
22047;BME280;11187;49.412;20.956;2023-06-22T10:30:10;95431.19;;;24.59;99.99
22047;BME280;11187;49.412;20.956;2023-06-22T10:32:57;95429.09;;;24.64;99.80
22047;BME280;11187;49.412;20.956;2023-06-22T10:35:30;95423.41;;;24.70;100.00
22047;BME280;11187;49.412;20.956;2023-06-22T10:38:20;95423.75;;;24.78;96.22
22047;BME280;11187;49.412;20.956;2023-06-22T10:40:53;95420.38;;;24.89;97.87
22047;BME280;11187;49.412;20.956;2023-06-22T10:43:40;95418.25;;;25.07;96.52
22047;BME280;11187;49.412;20.956;2023-06-22T10:46:13;95412.38;;;25.04;97.05
22047;BME280;11187;49.412;20.956;2023-06-22T10:49:00;95424.72;;;25.01;95.01
22047;BME280;11187;49.412;20.956;2023-06-22T10:51:33;95413.28;;;25.15;97.34
22047;BME280;11187;49.412;20.956;2023-06-22T10:54:21;95415.88;;;25.15;96.91
22047;BME280;11187;49.412;20.956;2023-06-22T10:56:54;95409.28;;;25.23;99.20
22047;BME280;11187;49.412;20.956;2023-06-22T10:59:41;95417.78;;;25.26;96.35
22047;BME280;11187;49.412;20.956;2023-06-22T11:02:14;95405.91;;;25.33;93.41
22047;BME280;11187;49.412;20.956;2023-06-22T11:05:01;95404.25;;;25.32;96.52
22047;BME280;11187;49.412;20.956;2023-06-22T11:07:34;95407.41;;;25.25;96.09
22047;BME280;11187;49.412;20.956;2023-06-22T11:10:24;95406.47;;;25.26;96.50
22047;BME280;11187;49.412;20.956;2023-06-22T11:12:58;95408.22;;;25.25;98.00
22047;BME280;11187;49.412;20.956;2023-06-22T11:15:50;95409.31;;;25.10;98.25
22047;BME280;11187;49.412;20.956;2023-06-22T11:18:23;95412.94;;;24.96;98.70
22047;BME280;11187;49.412;20.956;2023-06-22T11:21:17;95410.50;;;24.93;96.32
22047;BME280;11187;49.412;20.956;2023-06-22T11:24:11;95402.22;;;24.99;98.78
22047;BME280;11187;49.412;20.956;2023-06-22T11:27:08;95412.59;;;25.00;96.09
22047;BME280;11187;49.412;20.956;2023-06-22T11:29:42;95405.56;;;25.01;97.28
22047;BME280;11187;49.412;20.956;2023-06-22T11:32:29;95410.50;;;24.93;97.88
22047;BME280;11187;49.412;20.956;2023-06-22T11:35:03;95411.88;;;24.86;97.15
22047;BME280;11187;49.412;20.956;2023-06-22T11:37:50;95398.94;;;24.71;98.48
22047;BME280;11187;49.412;20.956;2023-06-22T11:40:23;95404.59;;;24.65;99.29
22047;BME280;11187;49.412;20.956;2023-06-22T11:43:18;95395.16;;;24.50;98.10
22047;BME280;11187;49.412;20.956;2023-06-22T11:45:52;95397.78;;;24.50;99.37
22047;BME280;11187;49.412;20.956;2023-06-22T11:48:40;95388.66;;;24.43;100.00
22047;BME280;11187;49.412;20.956;2023-06-22T11:51:14;95385.31;;;24.41;100.00
22047;BME280;11187;49.412;20.956;2023-06-22T11:54:02;95393.06;;;24.42;100.00
22047;BME280;11187;49.412;20.956;2023-06-22T11:56:36;95399.53;;;24.36;100.00
22047;BME280;11187;49.412;20.956;2023-06-22T11:59:24;95394.94;;;24.27;100.00
22047;BME280;11187;49.412;20.956;2023-06-22T12:01:57;95392.03;;;24.19;100.00
22047;BME280;11187;49.412;20.956;2023-06-22T12:04:46;95388.75;;;24.15;100.00
22047;BME280;11187;49.412;20.956;2023-06-22T12:07:20;95388.16;;;24.12;100.00
22047;BME280;11187;49.412;20.956;2023-06-22T12:10:08;95387.41;;;24.10;98.20
22047;BME280;11187;49.412;20.956;2023-06-22T12:12:41;95389.41;;;24.19;98.09
22047;BME280;11187;49.412;20.956;2023-06-22T12:15:36;95385.22;;;24.16;99.76
22047;BME280;11187;49.412;20.956;2023-06-22T12:18:10;95382.19;;;24.10;100.00
22047;BME280;11187;49.412;20.956;2023-06-22T12:21:07;95382.81;;;24.01;99.43
22047;BME280;11187;49.412;20.956;2023-06-22T12:23:40;95387.31;;;23.99;100.00
22047;BME280;11187;49.412;20.956;2023-06-22T12:26:28;95378.59;;;23.98;98.59
22047;BME280;11187;49.412;20.956;2023-06-22T12:29:01;95376.84;;;23.99;100.00
22047;BME280;11187;49.412;20.956;2023-06-22T12:31:48;95377.97;;;23.94;100.00
22047;BME280;11187;49.412;20.956;2023-06-22T12:34:21;95375.69;;;23.90;100.00
22047;BME280;11187;49.412;20.956;2023-06-22T12:37:15;95375.25;;;23.83;100.00
22047;BME280;11187;49.412;20.956;2023-06-22T12:39:48;95377.34;;;23.78;100.00
22047;BME280;11187;49.412;20.956;2023-06-22T12:42:35;95376.88;;;23.71;100.00
22047;BME280;11187;49.412;20.956;2023-06-22T12:45:09;95365.78;;;23.68;100.00
22047;BME280;11187;49.412;20.956;2023-06-22T12:47:56;95364.41;;;23.62;100.00
22047;BME280;11187;49.412;20.956;2023-06-22T12:50:30;95360.94;;;23.62;100.00
22047;BME280;11187;49.412;20.956;2023-06-22T12:53:16;95362.09;;;23.58;100.00
22047;BME280;11187;49.412;20.956;2023-06-22T12:55:49;95370.13;;;23.54;100.00
22047;BME280;11187;49.412;20.956;2023-06-22T12:58:43;95362.50;;;23.51;100.00
22047;BME280;11187;49.412;20.956;2023-06-22T13:01:37;95348.69;;;23.49;100.00
22047;BME280;11187;49.412;20.956;2023-06-22T13:04:11;95355.69;;;23.49;100.00
22047;BME280;11187;49.412;20.956;2023-06-22T13:06:58;95347.88;;;23.49;100.00
22047;BME280;11187;49.412;20.956;2023-06-22T13:09:46;95341.97;;;23.45;100.00
22047;BME280;11187;49.412;20.956;2023-06-22T13:12:42;95352.44;;;23.45;100.00
22047;BME280;11187;49.412;20.956;2023-06-22T13:15:15;95348.91;;;23.46;100.00
22047;BME280;11187;49.412;20.956;2023-06-22T13:18:02;95339.28;;;23.47;100.00
22047;BME280;11187;49.412;20.956;2023-06-22T13:20:36;95337.72;;;23.44;100.00
22047;BME280;11187;49.412;20.956;2023-06-22T13:23:22;95338.53;;;23.45;100.00
22047;BME280;11187;49.412;20.956;2023-06-22T13:25:57;95335.72;;;23.48;100.00
22047;BME280;11187;49.412;20.956;2023-06-22T13:28:52;95341.91;;;23.47;100.00
22047;BME280;11187;49.412;20.956;2023-06-22T13:31:48;95340.13;;;23.47;100.00
22047;BME280;11187;49.412;20.956;2023-06-22T13:34:21;95336.66;;;23.47;100.00
22047;BME280;11187;49.412;20.956;2023-06-22T13:37:08;95344.72;;;23.44;100.00
22047;BME280;11187;49.412;20.956;2023-06-22T13:39:41;95337.72;;;23.44;100.00
22047;BME280;11187;49.412;20.956;2023-06-22T13:42:28;95335.84;;;23.46;99.40
22047;BME280;11187;49.412;20.956;2023-06-22T13:45:02;95338.25;;;23.49;100.00
22047;BME280;11187;49.412;20.956;2023-06-22T13:47:49;95338.75;;;23.54;100.00
22047;BME280;11187;49.412;20.956;2023-06-22T13:50:23;95338.75;;;23.54;98.88
22047;BME280;11187;49.412;20.956;2023-06-22T13:53:10;95335.09;;;23.57;100.00
22047;BME280;11187;49.412;20.956;2023-06-22T13:55:43;95335.84;;;23.59;100.00
22047;BME280;11187;49.412;20.956;2023-06-22T13:58:30;95339.50;;;23.56;100.00
22047;BME280;11187;49.412;20.956;2023-06-22T14:01:04;95335.31;;;23.54;100.00
22047;BME280;11187;49.412;20.956;2023-06-22T14:03:56;95327.69;;;23.51;100.00
22047;BME280;11187;49.412;20.956;2023-06-22T14:06:30;95329.75;;;23.46;100.00
22047;BME280;11187;49.412;20.956;2023-06-22T14:09:17;95333.31;;;23.45;100.00